createdAt,value
2018-12-25T00:04:22.776Z,-0.40
2018-12-25T00:09:15.041Z,-0.50
2018-12-25T00:14:07.481Z,-0.50
2018-12-25T00:19:06.129Z,-0.50
2018-12-25T00:23:54.229Z,-0.40
2018-12-25T00:28:46.736Z,-0.50
2018-12-25T00:33:39.093Z,-0.50
2018-12-25T00:38:31.557Z,-0.50
2018-12-25T00:43:24.181Z,-0.60
2018-12-25T00:48:16.274Z,-0.60
2018-12-25T00:53:08.432Z,-0.60
2018-12-25T00:58:00.818Z,-0.60
2018-12-25T01:02:57.937Z,-0.70
2018-12-25T01:07:52.207Z,-0.70
2018-12-25T01:12:45.775Z,-0.70
2018-12-25T01:17:39.428Z,-0.70
2018-12-25T01:22:31.797Z,-0.80
2018-12-25T01:27:24.073Z,-0.80
2018-12-25T01:32:16.294Z,-0.80
2018-12-25T01:37:08.523Z,-0.90
2018-12-25T01:42:00.778Z,-0.90
2018-12-25T01:46:53.245Z,-1.00
2018-12-25T01:51:45.136Z,-1.00
2018-12-25T01:56:37.438Z,-1.00
2018-12-25T02:01:29.865Z,-1.00
2018-12-25T02:06:22.043Z,-1.00
2018-12-25T02:11:14.518Z,-1.10
2018-12-25T02:16:07.088Z,-1.10
2018-12-25T02:20:59.246Z,-1.10
2018-12-25T02:25:51.672Z,-1.10
2018-12-25T02:30:43.805Z,-1.20
2018-12-25T02:35:35.926Z,-1.20
2018-12-25T02:40:28.227Z,-1.20
2018-12-25T02:45:20.329Z,-1.10
2018-12-25T02:50:13.092Z,-1.00
2018-12-25T02:55:05.386Z,-1.00
2018-12-25T02:59:57.856Z,-0.90
2018-12-25T03:04:49.751Z,-0.90
2018-12-25T03:09:41.954Z,-0.80
2018-12-25T03:14:34.336Z,-0.80
2018-12-25T03:19:26.907Z,-0.80
2018-12-25T03:24:19.222Z,-0.80
2018-12-25T03:29:11.377Z,-0.90
2018-12-25T03:34:03.732Z,-0.80
2018-12-25T03:38:56.195Z,-0.80
2018-12-25T03:43:48.676Z,-0.70
2018-12-25T03:48:40.900Z,-0.70
2018-12-25T03:53:33.298Z,-0.70
2018-12-25T03:58:25.686Z,-0.80
2018-12-25T04:03:18.183Z,-0.90
2018-12-25T04:08:10.406Z,-0.90
2018-12-25T04:13:03.041Z,-0.90
2018-12-25T04:17:55.571Z,-1.10
2018-12-25T04:22:47.936Z,-1.30
2018-12-25T04:27:40.009Z,-1.30
2018-12-25T04:32:32.693Z,-1.30
2018-12-25T04:37:24.998Z,-1.30
2018-12-25T04:42:17.186Z,-1.40
2018-12-25T04:47:09.838Z,-1.50
2018-12-25T04:52:02.029Z,-1.50
2018-12-25T04:56:54.117Z,-1.50
2018-12-25T05:01:46.617Z,-1.60
2018-12-25T05:06:38.745Z,-1.60
2018-12-25T05:11:30.785Z,-1.70
2018-12-25T05:16:23.121Z,-1.70
2018-12-25T05:21:15.354Z,-1.80
2018-12-25T05:26:07.598Z,-1.70
2018-12-25T05:31:00.101Z,-1.80
2018-12-25T05:35:52.449Z,-1.80
2018-12-25T05:40:44.718Z,-1.90
2018-12-25T05:45:37.074Z,-1.90
2018-12-25T05:50:29.292Z,-1.90
2018-12-25T05:55:21.672Z,-1.90
2018-12-25T06:00:13.827Z,-1.90
2018-12-25T06:05:06.096Z,-2.00
2018-12-25T06:09:58.708Z,-2.00
2018-12-25T06:14:51.029Z,-2.00
2018-12-25T06:19:43.264Z,-2.00
2018-12-25T06:24:35.382Z,-2.00
2018-12-25T06:29:27.504Z,-2.10
2018-12-25T06:34:19.737Z,-2.10
2018-12-25T06:39:12.261Z,-2.20
2018-12-25T06:44:04.518Z,-2.10
2018-12-25T06:48:56.711Z,-2.10
2018-12-25T06:53:48.669Z,-2.20
2018-12-25T06:58:41.134Z,-2.20
2018-12-25T07:03:33.457Z,-2.30
2018-12-25T07:08:25.870Z,-2.40
2018-12-25T07:13:17.898Z,-2.40
2018-12-25T07:18:10.617Z,-2.50
2018-12-25T07:23:02.985Z,-2.40
2018-12-25T07:27:55.410Z,-2.40
2018-12-25T07:32:47.978Z,-2.40
2018-12-25T07:37:39.916Z,-2.40
2018-12-25T07:42:32.262Z,-2.60
2018-12-25T07:47:24.342Z,-2.60
2018-12-25T07:52:16.915Z,-2.60
2018-12-25T07:57:09.124Z,-2.60
2018-12-25T08:02:01.535Z,-2.60
2018-12-25T08:06:53.835Z,-2.60
2018-12-25T08:11:45.996Z,-2.50
2018-12-25T08:16:38.329Z,-2.50
2018-12-25T08:21:30.570Z,-2.40
2018-12-25T08:26:22.868Z,-2.30
2018-12-25T08:31:15.015Z,-2.20
2018-12-25T08:36:07.257Z,-1.90
2018-12-25T08:40:59.904Z,-1.90
2018-12-25T08:45:51.976Z,-1.70
2018-12-25T08:50:44.202Z,-1.40
2018-12-25T08:55:36.770Z,-1.40
2018-12-25T09:00:28.945Z,-1.50
2018-12-25T09:05:21.186Z,-1.50
2018-12-25T09:10:13.413Z,-1.60
2018-12-25T09:15:05.769Z,-1.50
2018-12-25T09:19:58.349Z,-1.30
2018-12-25T09:24:51.371Z,-1.10
2018-12-25T09:29:43.847Z,-1.00
2018-12-25T09:34:35.964Z,-1.00
2018-12-25T09:39:28.433Z,-1.00
2018-12-25T09:44:20.801Z,-1.00
2018-12-25T09:49:13.459Z,-1.00
2018-12-25T09:54:05.939Z,-0.90
2018-12-25T09:58:58.401Z,-0.90
2018-12-25T10:03:50.660Z,-0.90
2018-12-25T10:08:42.959Z,-0.80
2018-12-25T10:13:35.091Z,-0.80
2018-12-25T10:18:27.386Z,-0.80
2018-12-25T10:23:19.913Z,-0.70
2018-12-25T10:28:12.016Z,-0.50
2018-12-25T10:33:04.527Z,-0.20
2018-12-25T10:37:57.036Z,0.00
2018-12-25T10:42:49.168Z,0.40
2018-12-25T10:47:41.701Z,0.50
2018-12-25T10:52:33.861Z,0.50
2018-12-25T10:57:26.521Z,0.40
2018-12-25T11:02:18.861Z,0.30
2018-12-25T11:07:10.970Z,0.40
2018-12-25T11:12:03.145Z,0.50
2018-12-25T11:16:55.206Z,0.60
2018-12-25T11:21:47.553Z,0.60
2018-12-25T11:26:39.705Z,0.70
2018-12-25T11:31:32.182Z,0.90
2018-12-25T11:36:24.382Z,1.00
2018-12-25T11:41:16.826Z,1.10
2018-12-25T11:46:09.305Z,1.10
2018-12-25T11:51:01.381Z,1.20
2018-12-25T11:55:53.273Z,1.30
2018-12-25T12:00:45.405Z,1.50
2018-12-25T12:05:37.864Z,1.60
2018-12-25T12:10:30.139Z,1.70
2018-12-25T12:15:22.296Z,1.70
2018-12-25T12:20:14.762Z,1.70
2018-12-25T12:25:07.023Z,1.70
2018-12-25T12:29:59.440Z,1.70
2018-12-25T12:34:51.748Z,1.70
2018-12-25T12:39:43.587Z,1.70
2018-12-25T12:44:35.738Z,1.70
2018-12-25T12:49:28.083Z,1.90
2018-12-25T12:54:20.565Z,2.00
2018-12-25T12:59:12.869Z,2.10
2018-12-25T13:04:05.232Z,2.20
2018-12-25T13:08:57.524Z,2.30
2018-12-25T13:13:49.656Z,2.30
2018-12-25T13:18:41.902Z,2.30
2018-12-25T13:23:34.229Z,2.10
2018-12-25T13:28:26.725Z,2.00
2018-12-25T13:33:19.124Z,2.00
2018-12-25T13:38:11.565Z,2.10
2018-12-25T13:43:03.996Z,2.30
2018-12-25T13:47:56.110Z,2.30
2018-12-25T13:52:48.038Z,2.30
2018-12-25T13:57:40.171Z,2.30
2018-12-25T14:02:32.482Z,2.30
2018-12-25T14:07:24.885Z,2.40
2018-12-25T14:12:16.933Z,2.40
2018-12-25T14:17:09.562Z,2.40
2018-12-25T14:22:02.049Z,2.50
2018-12-25T14:26:54.401Z,2.60
2018-12-25T14:31:46.863Z,2.60
2018-12-25T14:36:39.113Z,2.60
2018-12-25T14:41:31.626Z,2.70
2018-12-25T14:46:23.905Z,2.70
2018-12-25T14:51:16.252Z,2.50
2018-12-25T14:56:08.385Z,2.30
2018-12-25T15:01:00.596Z,2.20
2018-12-25T15:05:53.181Z,2.00
2018-12-25T15:10:45.219Z,1.80
2018-12-25T15:15:37.578Z,1.60
2018-12-25T15:20:29.998Z,1.40
2018-12-25T15:25:22.170Z,1.30
2018-12-25T15:30:14.526Z,1.10
2018-12-25T15:35:10.873Z,1.00
2018-12-25T15:40:03.000Z,0.90
2018-12-25T15:44:55.567Z,0.80
2018-12-25T15:49:47.678Z,0.60
2018-12-25T15:54:39.803Z,0.50
2018-12-25T15:59:31.990Z,0.30
2018-12-25T16:04:24.436Z,0.20
2018-12-25T16:09:16.509Z,0.10
2018-12-25T16:14:09.126Z,0.10
2018-12-25T16:19:01.877Z,0.00
2018-12-25T16:23:53.965Z,-0.10
2018-12-25T16:28:46.145Z,-0.10
2018-12-25T16:33:38.348Z,-0.20
2018-12-25T16:38:30.532Z,-0.30
2018-12-25T16:43:22.639Z,-0.40
2018-12-25T16:48:16.504Z,-0.50
2018-12-25T16:53:08.561Z,-0.50
2018-12-25T16:58:00.972Z,-0.50
2018-12-25T17:02:53.161Z,-0.60
2018-12-25T17:07:45.260Z,-0.60
2018-12-25T17:12:37.615Z,-0.60
2018-12-25T17:17:29.836Z,-0.70
2018-12-25T17:22:21.703Z,-0.60
2018-12-25T17:27:14.000Z,-0.70
2018-12-25T17:32:06.189Z,-0.80
2018-12-25T17:36:58.766Z,-0.80
2018-12-25T17:41:51.217Z,-0.90
2018-12-25T17:46:43.609Z,-1.00
2018-12-25T17:51:35.397Z,-1.00
2018-12-25T17:56:27.943Z,-1.00
2018-12-25T18:01:20.106Z,-1.10
2018-12-25T18:06:12.285Z,-1.00
2018-12-25T18:11:04.571Z,-1.00
2018-12-25T18:15:56.900Z,-1.10
2018-12-25T18:20:49.211Z,-1.20
2018-12-25T18:25:41.400Z,-1.30
2018-12-25T18:30:33.730Z,-1.30
2018-12-25T18:35:26.069Z,-1.40
2018-12-25T18:40:18.114Z,-1.40
2018-12-25T18:45:11.235Z,-1.50
2018-12-25T18:50:04.183Z,-1.50
2018-12-25T18:54:56.583Z,-1.60
2018-12-25T18:59:48.669Z,-1.60
2018-12-25T19:04:41.226Z,-1.60
2018-12-25T19:09:33.322Z,-1.60
2018-12-25T19:14:25.759Z,-1.70
2018-12-25T19:19:17.825Z,-1.70
2018-12-25T19:24:10.501Z,-1.70
2018-12-25T19:29:02.426Z,-1.70
2018-12-25T19:33:54.697Z,-1.80
2018-12-25T19:38:47.305Z,-1.80
2018-12-25T19:43:39.766Z,-1.90
2018-12-25T19:48:31.964Z,-1.90
2018-12-25T19:53:24.423Z,-2.00
2018-12-25T19:58:16.661Z,-2.00
2018-12-25T20:03:08.904Z,-2.00
2018-12-25T20:08:13.258Z,-2.10
2018-12-25T20:13:20.270Z,-2.10
2018-12-25T20:18:27.670Z,-2.20
2018-12-25T20:23:51.148Z,-2.20
2018-12-25T20:29:05.233Z,-2.20
2018-12-25T20:34:18.737Z,-2.20
2018-12-25T20:39:19.863Z,-2.20
2018-12-25T20:44:24.062Z,-2.30
2018-12-25T20:49:19.168Z,-2.30
2018-12-25T20:54:22.998Z,-2.30
2018-12-25T20:59:40.513Z,-2.30
2018-12-25T21:04:38.065Z,-2.30
2018-12-25T21:10:06.268Z,-2.30
2018-12-25T21:15:22.482Z,-2.40
2018-12-25T21:20:32.729Z,-2.40
2018-12-25T21:25:59.542Z,-2.60
2018-12-25T21:30:51.810Z,-2.60
2018-12-25T21:35:44.426Z,-2.60
2018-12-25T21:40:37.661Z,-2.60
2018-12-25T21:45:29.893Z,-2.60
2018-12-25T21:50:22.878Z,-2.70
2018-12-25T21:55:18.913Z,-2.70
2018-12-25T22:00:11.329Z,-2.70
2018-12-25T22:05:03.866Z,-2.80
2018-12-25T22:09:55.773Z,-2.80
2018-12-25T22:14:47.948Z,-2.90
2018-12-25T22:19:40.174Z,-3.00
2018-12-25T22:24:32.466Z,-3.00
2018-12-25T22:29:24.971Z,-3.10
2018-12-25T22:34:17.655Z,-3.10
2018-12-25T22:39:09.793Z,-3.10
2018-12-25T22:44:02.259Z,-3.10
2018-12-25T22:48:54.448Z,-3.00
2018-12-25T22:53:46.760Z,-3.10
2018-12-25T22:58:39.157Z,-3.10
2018-12-25T23:03:31.309Z,-3.20
2018-12-25T23:08:23.803Z,-3.20
2018-12-25T23:13:16.051Z,-3.20
2018-12-25T23:18:08.540Z,-3.20
2018-12-25T23:23:00.966Z,-3.20
2018-12-25T23:27:53.637Z,-3.20
2018-12-25T23:32:46.242Z,-3.40
2018-12-25T23:37:38.478Z,-3.40
2018-12-25T23:42:31.013Z,-3.50
2018-12-25T23:47:23.452Z,-3.50
2018-12-25T23:52:16.078Z,-3.50
2018-12-25T23:57:08.221Z,-3.40
